sensor_id;sensor_type;location;lat;lon;timestamp;temperature;humidity
4904;DHT22;2467;48.142;11.616;2023-03-14T00:00:19;12.90;99.90
4904;DHT22;2467;48.142;11.616;2023-03-14T00:00:52;12.90;99.90
4904;DHT22;2467;48.142;11.616;2023-03-14T00:01:26;12.90;99.90
4904;DHT22;2467;48.142;11.616;2023-03-14T00:01:58;12.80;99.90
4904;DHT22;2467;48.142;11.616;2023-03-14T00:02:30;12.80;99.90
4904;DHT22;2467;48.142;11.616;2023-03-14T00:03:03;12.80;99.90
4904;DHT22;2467;48.142;11.616;2023-03-14T00:03:35;12.80;99.90
4904;DHT22;2467;48.142;11.616;2023-03-14T00:04:07;12.70;99.90
4904;DHT22;2467;48.142;11.616;2023-03-14T00:04:39;12.70;99.90
4904;DHT22;2467;48.142;11.616;2023-03-14T00:05:11;12.60;99.90
4904;DHT22;2467;48.142;11.616;2023-03-14T00:05:43;12.60;99.90
4904;DHT22;2467;48.142;11.616;2023-03-14T00:06:17;12.60;99.90
4904;DHT22;2467;48.142;11.616;2023-03-14T00:06:51;12.60;99.90
4904;DHT22;2467;48.142;11.616;2023-03-14T00:07:23;12.60;99.90
4904;DHT22;2467;48.142;11.616;2023-03-14T00:07:56;12.60;99.90
4904;DHT22;2467;48.142;11.616;2023-03-14T00:08:28;12.50;99.90
4904;DHT22;2467;48.142;11.616;2023-03-14T00:09:01;12.50;99.90
4904;DHT22;2467;48.142;11.616;2023-03-14T00:09:32;12.50;99.90
4904;DHT22;2467;48.142;11.616;2023-03-14T00:10:06;12.50;99.90
4904;DHT22;2467;48.142;11.616;2023-03-14T00:10:40;12.50;99.90
4904;DHT22;2467;48.142;11.616;2023-03-14T00:11:14;12.50;99.90
4904;DHT22;2467;48.142;11.616;2023-03-14T00:11:46;12.50;99.90
4904;DHT22;2467;48.142;11.616;2023-03-14T00:12:19;12.50;99.90
4904;DHT22;2467;48.142;11.616;2023-03-14T00:12:51;12.50;99.90
4904;DHT22;2467;48.142;11.616;2023-03-14T00:13:23;12.40;99.90
4904;DHT22;2467;48.142;11.616;2023-03-14T00:13:56;12.40;99.90
4904;DHT22;2467;48.142;11.616;2023-03-14T00:14:29;12.40;99.90
4904;DHT22;2467;48.142;11.616;2023-03-14T00:15:01;12.40;99.90
4904;DHT22;2467;48.142;11.616;2023-03-14T00:15:35;12.40;99.90
4904;DHT22;2467;48.142;11.616;2023-03-14T00:16:09;12.40;99.90
4904;DHT22;2467;48.142;11.616;2023-03-14T00:16:45;12.40;99.90
4904;DHT22;2467;48.142;11.616;2023-03-14T00:17:17;12.40;99.90
4904;DHT22;2467;48.142;11.616;2023-03-14T00:17:49;12.40;99.90
4904;DHT22;2467;48.142;11.616;2023-03-14T00:18:22;12.40;99.90
4904;DHT22;2467;48.142;11.616;2023-03-14T00:18:55;12.30;99.90
4904;DHT22;2467;48.142;11.616;2023-03-14T00:19:26;12.30;99.90
4904;DHT22;2467;48.142;11.616;2023-03-14T00:19:59;12.30;99.90
4904;DHT22;2467;48.142;11.616;2023-03-14T00:20:36;12.30;99.90
4904;DHT22;2467;48.142;11.616;2023-03-14T00:21:09;12.30;99.90
4904;DHT22;2467;48.142;11.616;2023-03-14T00:21:42;12.30;99.90
4904;DHT22;2467;48.142;11.616;2023-03-14T00:22:16;12.30;99.90
4904;DHT22;2467;48.142;11.616;2023-03-14T00:22:47;12.30;99.90
4904;DHT22;2467;48.142;11.616;2023-03-14T00:23:20;12.40;99.90
4904;DHT22;2467;48.142;11.616;2023-03-14T00:23:52;12.40;99.90
4904;DHT22;2467;48.142;11.616;2023-03-14T00:24:24;12.40;99.90
4904;DHT22;2467;48.142;11.616;2023-03-14T00:24:57;12.40;99.90
4904;DHT22;2467;48.142;11.616;2023-03-14T00:25:29;12.40;99.90
4904;DHT22;2467;48.142;11.616;2023-03-14T00:26:01;12.40;99.90
4904;DHT22;2467;48.142;11.616;2023-03-14T00:26:35;12.40;99.90
4904;DHT22;2467;48.142;11.616;2023-03-14T00:27:07;12.50;99.90
4904;DHT22;2467;48.142;11.616;2023-03-14T00:27:39;12.50;99.90
4904;DHT22;2467;48.142;11.616;2023-03-14T00:28:12;12.50;99.90
4904;DHT22;2467;48.142;11.616;2023-03-14T00:28:44;12.50;99.90
4904;DHT22;2467;48.142;11.616;2023-03-14T00:29:16;12.50;99.90
4904;DHT22;2467;48.142;11.616;2023-03-14T00:29:49;12.60;99.90
4904;DHT22;2467;48.142;11.616;2023-03-14T00:30:21;12.60;99.90
4904;DHT22;2467;48.142;11.616;2023-03-14T00:30:53;12.60;99.90
4904;DHT22;2467;48.142;11.616;2023-03-14T00:31:26;12.60;99.90
4904;DHT22;2467;48.142;11.616;2023-03-14T00:31:58;12.60;99.90
4904;DHT22;2467;48.142;11.616;2023-03-14T00:32:30;12.70;99.90
4904;DHT22;2467;48.142;11.616;2023-03-14T00:33:03;12.50;99.90
4904;DHT22;2467;48.142;11.616;2023-03-14T00:33:35;12.70;99.90
4904;DHT22;2467;48.142;11.616;2023-03-14T00:34:07;12.70;99.90
4904;DHT22;2467;48.142;11.616;2023-03-14T00:34:40;12.70;99.90
4904;DHT22;2467;48.142;11.616;2023-03-14T00:35:12;12.70;99.90
4904;DHT22;2467;48.142;11.616;2023-03-14T00:35:51;12.70;99.90
4904;DHT22;2467;48.142;11.616;2023-03-14T00:36:24;12.70;99.90
4904;DHT22;2467;48.142;11.616;2023-03-14T00:36:56;12.70;99.90
4904;DHT22;2467;48.142;11.616;2023-03-14T00:37:30;12.70;99.90
4904;DHT22;2467;48.142;11.616;2023-03-14T00:38:02;12.70;99.90
4904;DHT22;2467;48.142;11.616;2023-03-14T00:38:35;12.70;99.90
4904;DHT22;2467;48.142;11.616;2023-03-14T00:39:07;12.70;99.90
4904;DHT22;2467;48.142;11.616;2023-03-14T00:39:40;12.70;99.90
4904;DHT22;2467;48.142;11.616;2023-03-14T00:40:12;12.70;99.90
4904;DHT22;2467;48.142;11.616;2023-03-14T00:40:44;12.70;99.90
4904;DHT22;2467;48.142;11.616;2023-03-14T00:41:19;12.70;99.90
4904;DHT22;2467;48.142;11.616;2023-03-14T00:41:51;12.70;99.90
4904;DHT22;2467;48.142;11.616;2023-03-14T00:42:23;12.70;99.90
4904;DHT22;2467;48.142;11.616;2023-03-14T00:42:56;12.70;99.90
4904;DHT22;2467;48.142;11.616;2023-03-14T00:43:28;12.70;99.90
4904;DHT22;2467;48.142;11.616;2023-03-14T00:44:00;12.60;99.90
4904;DHT22;2467;48.142;11.616;2023-03-14T00:44:32;12.60;99.90
4904;DHT22;2467;48.142;11.616;2023-03-14T00:45:05;12.60;99.90
4904;DHT22;2467;48.142;11.616;2023-03-14T00:45:39;12.70;99.90
4904;DHT22;2467;48.142;11.616;2023-03-14T00:46:12;12.60;99.90
4904;DHT22;2467;48.142;11.616;2023-03-14T00:46:44;12.60;99.90
4904;DHT22;2467;48.142;11.616;2023-03-14T00:47:16;12.60;99.90
4904;DHT22;2467;48.142;11.616;2023-03-14T00:47:49;12.60;99.90
4904;DHT22;2467;48.142;11.616;2023-03-14T00:48:21;12.60;99.90
4904;DHT22;2467;48.142;11.616;2023-03-14T00:48:53;12.60;99.90
4904;DHT22;2467;48.142;11.616;2023-03-14T00:49:26;12.70;99.90
4904;DHT22;2467;48.142;11.616;2023-03-14T00:49:58;12.50;99.90
4904;DHT22;2467;48.142;11.616;2023-03-14T00:50:30;12.50;99.90
4904;DHT22;2467;48.142;11.616;2023-03-14T00:51:04;12.40;99.90
4904;DHT22;2467;48.142;11.616;2023-03-14T00:51:36;12.40;99.90
4904;DHT22;2467;48.142;11.616;2023-03-14T00:52:08;12.40;99.90
4904;DHT22;2467;48.142;11.616;2023-03-14T00:52:43;12.40;99.90
4904;DHT22;2467;48.142;11.616;2023-03-14T00:53:15;12.40;99.90
4904;DHT22;2467;48.142;11.616;2023-03-14T00:53:47;12.40;99.90
4904;DHT22;2467;48.142;11.616;2023-03-14T00:54:20;12.30;99.90
4904;DHT22;2467;48.142;11.616;2023-03-14T00:54:51;12.30;99.90
4904;DHT22;2467;48.142;11.616;2023-03-14T00:55:23;12.30;99.90
4904;DHT22;2467;48.142;11.616;2023-03-14T00:55:56;12.30;99.90
4904;DHT22;2467;48.142;11.616;2023-03-14T00:56:28;12.30;99.90
4904;DHT22;2467;48.142;11.616;2023-03-14T00:57:00;12.20;99.90
4904;DHT22;2467;48.142;11.616;2023-03-14T00:57:33;12.20;99.90
4904;DHT22;2467;48.142;11.616;2023-03-14T00:58:05;12.20;99.90
4904;DHT22;2467;48.142;11.616;2023-03-14T00:58:37;12.20;99.90
4904;DHT22;2467;48.142;11.616;2023-03-14T00:59:09;12.20;99.90
4904;DHT22;2467;48.142;11.616;2023-03-14T00:59:42;12.20;99.90
4904;DHT22;2467;48.142;11.616;2023-03-14T01:00:15;12.20;99.90
4904;DHT22;2467;48.142;11.616;2023-03-14T01:00:47;12.20;99.90
4904;DHT22;2467;48.142;11.616;2023-03-14T01:01:19;12.20;99.90
4904;DHT22;2467;48.142;11.616;2023-03-14T01:01:51;12.10;99.90
4904;DHT22;2467;48.142;11.616;2023-03-14T01:02:23;12.10;99.90
4904;DHT22;2467;48.142;11.616;2023-03-14T01:02:55;12.10;99.90
4904;DHT22;2467;48.142;11.616;2023-03-14T01:03:28;12.00;99.90
4904;DHT22;2467;48.142;11.616;2023-03-14T01:04:00;12.10;99.90
4904;DHT22;2467;48.142;11.616;2023-03-14T01:04:32;12.10;99.90
4904;DHT22;2467;48.142;11.616;2023-03-14T01:05:07;12.10;99.90
4904;DHT22;2467;48.142;11.616;2023-03-14T01:05:39;12.10;99.90
4904;DHT22;2467;48.142;11.616;2023-03-14T01:06:13;12.10;99.90
4904;DHT22;2467;48.142;11.616;2023-03-14T01:06:46;12.10;99.90
4904;DHT22;2467;48.142;11.616;2023-03-14T01:07:18;12.10;99.90
4904;DHT22;2467;48.142;11.616;2023-03-14T01:07:51;12.10;99.90
4904;DHT22;2467;48.142;11.616;2023-03-14T01:08:24;12.10;99.90
4904;DHT22;2467;48.142;11.616;2023-03-14T01:08:56;12.10;99.90
4904;DHT22;2467;48.142;11.616;2023-03-14T01:09:28;12.10;99.90
4904;DHT22;2467;48.142;11.616;2023-03-14T01:10:02;12.10;99.90
4904;DHT22;2467;48.142;11.616;2023-03-14T01:10:38;12.10;99.90
4904;DHT22;2467;48.142;11.616;2023-03-14T01:11:11;12.10;99.90
4904;DHT22;2467;48.142;11.616;2023-03-14T01:11:45;12.10;99.90
4904;DHT22;2467;48.142;11.616;2023-03-14T01:12:18;12.10;99.90
4904;DHT22;2467;48.142;11.616;2023-03-14T01:12:50;12.10;99.90
4904;DHT22;2467;48.142;11.616;2023-03-14T01:13:22;12.10;99.90
4904;DHT22;2467;48.142;11.616;2023-03-14T01:13:55;12.10;99.90
4904;DHT22;2467;48.142;11.616;2023-03-14T01:14:27;12.10;99.90
4904;DHT22;2467;48.142;11.616;2023-03-14T01:15:00;12.10;99.90
4904;DHT22;2467;48.142;11.616;2023-03-14T01:15:32;12.10;99.90
4904;DHT22;2467;48.142;11.616;2023-03-14T01:16:06;12.10;99.90
4904;DHT22;2467;48.142;11.616;2023-03-14T01:16:38;12.10;99.90
4904;DHT22;2467;48.142;11.616;2023-03-14T01:17:11;12.10;99.90
4904;DHT22;2467;48.142;11.616;2023-03-14T01:17:43;12.10;99.90
4904;DHT22;2467;48.142;11.616;2023-03-14T01:18:15;12.10;99.90
4904;DHT22;2467;48.142;11.616;2023-03-14T01:18:48;12.00;99.90
4904;DHT22;2467;48.142;11.616;2023-03-14T01:19:20;12.00;99.90
4904;DHT22;2467;48.142;11.616;2023-03-14T01:19:51;12.00;99.90
4904;DHT22;2467;48.142;11.616;2023-03-14T01:20:25;12.00;99.90
4904;DHT22;2467;48.142;11.616;2023-03-14T01:20:57;12.00;99.90
4904;DHT22;2467;48.142;11.616;2023-03-14T01:21:30;12.00;99.90
4904;DHT22;2467;48.142;11.616;2023-03-14T01:22:04;12.00;99.90
4904;DHT22;2467;48.142;11.616;2023-03-14T01:22:36;12.00;99.90
4904;DHT22;2467;48.142;11.616;2023-03-14T01:23:11;12.00;99.90
4904;DHT22;2467;48.142;11.616;2023-03-14T01:23:45;12.00;99.90
4904;DHT22;2467;48.142;11.616;2023-03-14T01:24:17;12.00;99.90
4904;DHT22;2467;48.142;11.616;2023-03-14T01:24:49;11.90;99.90
4904;DHT22;2467;48.142;11.616;2023-03-14T01:25:22;11.90;99.90
4904;DHT22;2467;48.142;11.616;2023-03-14T01:25:53;11.90;99.90
4904;DHT22;2467;48.142;11.616;2023-03-14T01:26:27;11.90;99.90
4904;DHT22;2467;48.142;11.616;2023-03-14T01:26:59;11.90;99.90
4904;DHT22;2467;48.142;11.616;2023-03-14T01:27:32;11.90;99.90
4904;DHT22;2467;48.142;11.616;2023-03-14T01:28:04;11.90;99.90
4904;DHT22;2467;48.142;11.616;2023-03-14T01:28:35;11.90;99.90
4904;DHT22;2467;48.142;11.616;2023-03-14T01:29:07;11.90;99.90
4904;DHT22;2467;48.142;11.616;2023-03-14T01:29:40;11.90;99.90
4904;DHT22;2467;48.142;11.616;2023-03-14T01:30:13;11.90;99.90
4904;DHT22;2467;48.142;11.616;2023-03-14T01:30:45;11.90;99.90
4904;DHT22;2467;48.142;11.616;2023-03-14T01:31:18;11.80;99.90
4904;DHT22;2467;48.142;11.616;2023-03-14T01:31:50;11.80;99.90
4904;DHT22;2467;48.142;11.616;2023-03-14T01:32:22;11.80;99.90
4904;DHT22;2467;48.142;11.616;2023-03-14T01:32:55;11.80;99.90
4904;DHT22;2467;48.142;11.616;2023-03-14T01:33:28;11.80;99.90
4904;DHT22;2467;48.142;11.616;2023-03-14T01:34:00;11.80;99.90
4904;DHT22;2467;48.142;11.616;2023-03-14T01:34:32;11.80;99.90
4904;DHT22;2467;48.142;11.616;2023-03-14T01:35:05;11.80;99.90
4904;DHT22;2467;48.142;11.616;2023-03-14T01:35:37;11.80;99.90
4904;DHT22;2467;48.142;11.616;2023-03-14T01:36:10;11.80;99.90
4904;DHT22;2467;48.142;11.616;2023-03-14T01:36:42;11.70;99.90
4904;DHT22;2467;48.142;11.616;2023-03-14T01:37:15;11.70;99.90
4904;DHT22;2467;48.142;11.616;2023-03-14T01:37:47;11.60;99.90
4904;DHT22;2467;48.142;11.616;2023-03-14T01:38:20;11.60;99.90
4904;DHT22;2467;48.142;11.616;2023-03-14T01:38:53;11.60;99.90
4904;DHT22;2467;48.142;11.616;2023-03-14T01:39:25;11.60;99.90
4904;DHT22;2467;48.142;11.616;2023-03-14T01:39:59;11.60;99.90
4904;DHT22;2467;48.142;11.616;2023-03-14T01:40:31;11.60;99.90
4904;DHT22;2467;48.142;11.616;2023-03-14T01:41:04;11.60;99.90
4904;DHT22;2467;48.142;11.616;2023-03-14T01:41:37;11.60;99.90
4904;DHT22;2467;48.142;11.616;2023-03-14T01:42:09;11.60;99.90
4904;DHT22;2467;48.142;11.616;2023-03-14T01:42:45;11.50;99.90
4904;DHT22;2467;48.142;11.616;2023-03-14T01:43:20;11.50;99.90
4904;DHT22;2467;48.142;11.616;2023-03-14T01:43:52;11.50;99.90
4904;DHT22;2467;48.142;11.616;2023-03-14T01:44:24;11.50;99.90
4904;DHT22;2467;48.142;11.616;2023-03-14T01:44:59;11.40;99.90
4904;DHT22;2467;48.142;11.616;2023-03-14T01:46:52;11.30;99.90
4904;DHT22;2467;48.142;11.616;2023-03-14T01:47:25;11.20;99.90
4904;DHT22;2467;48.142;11.616;2023-03-14T01:47:57;11.30;99.90
4904;DHT22;2467;48.142;11.616;2023-03-14T01:48:34;11.30;99.90
4904;DHT22;2467;48.142;11.616;2023-03-14T01:49:15;11.30;99.90
4904;DHT22;2467;48.142;11.616;2023-03-14T01:49:51;11.30;99.90
4904;DHT22;2467;48.142;11.616;2023-03-14T01:50:26;11.30;99.90
4904;DHT22;2467;48.142;11.616;2023-03-14T01:50:59;11.30;99.90
4904;DHT22;2467;48.142;11.616;2023-03-14T01:51:37;11.30;99.90
4904;DHT22;2467;48.142;11.616;2023-03-14T01:52:12;11.30;99.90
4904;DHT22;2467;48.142;11.616;2023-03-14T01:52:47;11.30;99.90
4904;DHT22;2467;48.142;11.616;2023-03-14T01:53:25;11.30;99.90
4904;DHT22;2467;48.142;11.616;2023-03-14T01:54:06;11.30;99.90
4904;DHT22;2467;48.142;11.616;2023-03-14T01:54:42;11.30;99.90
4904;DHT22;2467;48.142;11.616;2023-03-14T01:55:18;11.20;99.90
4904;DHT22;2467;48.142;11.616;2023-03-14T01:55:52;11.20;99.90
4904;DHT22;2467;48.142;11.616;2023-03-14T01:56:27;11.10;99.90
4904;DHT22;2467;48.142;11.616;2023-03-14T01:57:05;11.10;99.90
4904;DHT22;2467;48.142;11.616;2023-03-14T01:57:42;11.00;99.90
4904;DHT22;2467;48.142;11.616;2023-03-14T01:58:16;11.00;99.90
4904;DHT22;2467;48.142;11.616;2023-03-14T01:58:50;10.90;99.90
4904;DHT22;2467;48.142;11.616;2023-03-14T01:59:24;10.90;99.90
4904;DHT22;2467;48.142;11.616;2023-03-14T01:59:59;10.90;99.90
4904;DHT22;2467;48.142;11.616;2023-03-14T02:00:35;10.90;99.90
4904;DHT22;2467;48.142;11.616;2023-03-14T02:01:08;10.90;99.90
4904;DHT22;2467;48.142;11.616;2023-03-14T02:01:43;10.90;99.90
4904;DHT22;2467;48.142;11.616;2023-03-14T02:02:17;10.90;99.90
4904;DHT22;2467;48.142;11.616;2023-03-14T02:02:51;10.90;99.90
4904;DHT22;2467;48.142;11.616;2023-03-14T02:03:25;10.90;99.90
4904;DHT22;2467;48.142;11.616;2023-03-14T02:04:02;10.80;99.90
4904;DHT22;2467;48.142;11.616;2023-03-14T02:04:35;10.80;99.90
4904;DHT22;2467;48.142;11.616;2023-03-14T02:05:07;10.80;99.90
4904;DHT22;2467;48.142;11.616;2023-03-14T02:05:42;10.70;99.90
4904;DHT22;2467;48.142;11.616;2023-03-14T02:06:17;10.90;99.90
4904;DHT22;2467;48.142;11.616;2023-03-14T02:06:55;10.70;99.90
4904;DHT22;2467;48.142;11.616;2023-03-14T02:07:33;10.70;99.90
4904;DHT22;2467;48.142;11.616;2023-03-14T02:08:09;10.60;99.90
4904;DHT22;2467;48.142;11.616;2023-03-14T02:08:44;10.60;99.90
4904;DHT22;2467;48.142;11.616;2023-03-14T02:09:20;10.60;99.90
4904;DHT22;2467;48.142;11.616;2023-03-14T02:09:52;10.60;99.90
4904;DHT22;2467;48.142;11.616;2023-03-14T02:10:27;10.60;99.90
4904;DHT22;2467;48.142;11.616;2023-03-14T02:11:01;10.60;99.90
4904;DHT22;2467;48.142;11.616;2023-03-14T02:11:33;10.60;99.90
4904;DHT22;2467;48.142;11.616;2023-03-14T02:12:06;10.60;99.90
4904;DHT22;2467;48.142;11.616;2023-03-14T02:12:40;10.60;99.90
4904;DHT22;2467;48.142;11.616;2023-03-14T02:13:13;10.60;99.90
4904;DHT22;2467;48.142;11.616;2023-03-14T02:13:46;10.60;99.90
4904;DHT22;2467;48.142;11.616;2023-03-14T02:14:28;10.50;99.90
4904;DHT22;2467;48.142;11.616;2023-03-14T02:15:02;10.50;99.90
4904;DHT22;2467;48.142;11.616;2023-03-14T02:15:35;10.50;99.90
4904;DHT22;2467;48.142;11.616;2023-03-14T02:16:07;10.50;99.90
4904;DHT22;2467;48.142;11.616;2023-03-14T02:16:40;10.40;99.90
4904;DHT22;2467;48.142;11.616;2023-03-14T02:17:13;10.40;99.90
4904;DHT22;2467;48.142;11.616;2023-03-14T02:17:46;10.40;99.90
4904;DHT22;2467;48.142;11.616;2023-03-14T02:18:19;10.40;99.90
4904;DHT22;2467;48.142;11.616;2023-03-14T02:18:51;10.40;99.90
4904;DHT22;2467;48.142;11.616;2023-03-14T02:19:34;10.30;99.90
4904;DHT22;2467;48.142;11.616;2023-03-14T02:20:25;10.30;99.90
4904;DHT22;2467;48.142;11.616;2023-03-14T02:21:02;10.30;99.90
4904;DHT22;2467;48.142;11.616;2023-03-14T02:21:45;10.20;99.90
4904;DHT22;2467;48.142;11.616;2023-03-14T02:22:19;10.20;99.90
4904;DHT22;2467;48.142;11.616;2023-03-14T02:22:52;10.20;99.90
4904;DHT22;2467;48.142;11.616;2023-03-14T02:23:32;10.20;99.90
4904;DHT22;2467;48.142;11.616;2023-03-14T02:24:15;10.20;99.90
4904;DHT22;2467;48.142;11.616;2023-03-14T02:24:54;10.20;99.90
4904;DHT22;2467;48.142;11.616;2023-03-14T02:25:38;10.20;99.90
4904;DHT22;2467;48.142;11.616;2023-03-14T02:26:14;10.20;99.90
4904;DHT22;2467;48.142;11.616;2023-03-14T02:27:46;10.20;99.90
4904;DHT22;2467;48.142;11.616;2023-03-14T02:28:20;10.10;99.90
4904;DHT22;2467;48.142;11.616;2023-03-14T02:28:52;10.10;99.90
4904;DHT22;2467;48.142;11.616;2023-03-14T02:29:25;10.10;99.90
4904;DHT22;2467;48.142;11.616;2023-03-14T02:30:00;10.10;99.90
4904;DHT22;2467;48.142;11.616;2023-03-14T02:30:33;10.10;99.90
4904;DHT22;2467;48.142;11.616;2023-03-14T02:31:06;10.10;99.90
4904;DHT22;2467;48.142;11.616;2023-03-14T02:31:40;10.10;99.90
4904;DHT22;2467;48.142;11.616;2023-03-14T02:32:12;10.20;99.90
4904;DHT22;2467;48.142;11.616;2023-03-14T02:32:47;10.20;99.90
4904;DHT22;2467;48.142;11.616;2023-03-14T02:33:21;10.20;99.90
4904;DHT22;2467;48.142;11.616;2023-03-14T02:33:55;10.10;99.90
4904;DHT22;2467;48.142;11.616;2023-03-14T02:34:27;10.10;99.90
4904;DHT22;2467;48.142;11.616;2023-03-14T02:35:03;10.20;99.90
4904;DHT22;2467;48.142;11.616;2023-03-14T02:35:40;10.10;99.90
4904;DHT22;2467;48.142;11.616;2023-03-14T02:36:14;10.10;99.90
4904;DHT22;2467;48.142;11.616;2023-03-14T02:36:47;10.10;99.90
4904;DHT22;2467;48.142;11.616;2023-03-14T02:37:21;10.10;99.90
4904;DHT22;2467;48.142;11.616;2023-03-14T02:38:00;10.10;99.90
4904;DHT22;2467;48.142;11.616;2023-03-14T02:38:35;10.10;99.90
4904;DHT22;2467;48.142;11.616;2023-03-14T02:39:14;10.10;99.90
4904;DHT22;2467;48.142;11.616;2023-03-14T02:39:47;10.10;99.90
4904;DHT22;2467;48.142;11.616;2023-03-14T02:40:20;10.10;99.90
4904;DHT22;2467;48.142;11.616;2023-03-14T02:40:52;10.10;99.90
4904;DHT22;2467;48.142;11.616;2023-03-14T02:41:25;10.20;99.90
4904;DHT22;2467;48.142;11.616;2023-03-14T02:41:57;10.20;99.90
4904;DHT22;2467;48.142;11.616;2023-03-14T02:42:29;10.20;99.90
4904;DHT22;2467;48.142;11.616;2023-03-14T02:43:03;10.20;99.90
4904;DHT22;2467;48.142;11.616;2023-03-14T02:43:35;10.20;99.90
4904;DHT22;2467;48.142;11.616;2023-03-14T02:44:07;10.20;99.90
4904;DHT22;2467;48.142;11.616;2023-03-14T02:44:51;10.20;99.90
4904;DHT22;2467;48.142;11.616;2023-03-14T02:45:36;10.20;99.90
4904;DHT22;2467;48.142;11.616;2023-03-14T02:46:10;10.20;99.90
4904;DHT22;2467;48.142;11.616;2023-03-14T02:46:43;10.20;99.90
4904;DHT22;2467;48.142;11.616;2023-03-14T02:47:15;10.20;99.90
4904;DHT22;2467;48.142;11.616;2023-03-14T02:47:52;10.20;99.90
4904;DHT22;2467;48.142;11.616;2023-03-14T02:48:26;10.20;99.90
4904;DHT22;2467;48.142;11.616;2023-03-14T02:49:03;10.20;99.90
4904;DHT22;2467;48.142;11.616;2023-03-14T02:49:36;10.20;99.90
4904;DHT22;2467;48.142;11.616;2023-03-14T02:50:10;10.20;99.90
4904;DHT22;2467;48.142;11.616;2023-03-14T02:50:45;10.20;99.90
4904;DHT22;2467;48.142;11.616;2023-03-14T02:51:18;10.20;99.90
4904;DHT22;2467;48.142;11.616;2023-03-14T02:51:50;10.20;99.90
4904;DHT22;2467;48.142;11.616;2023-03-14T02:52:23;10.20;99.90
4904;DHT22;2467;48.142;11.616;2023-03-14T02:52:55;10.20;99.90
4904;DHT22;2467;48.142;11.616;2023-03-14T02:53:29;10.20;99.90
4904;DHT22;2467;48.142;11.616;2023-03-14T02:54:03;10.20;99.90
4904;DHT22;2467;48.142;11.616;2023-03-14T02:54:34;10.30;99.90
4904;DHT22;2467;48.142;11.616;2023-03-14T02:55:07;10.30;99.90
4904;DHT22;2467;48.142;11.616;2023-03-14T02:55:44;10.30;99.90
4904;DHT22;2467;48.142;11.616;2023-03-14T02:56:16;10.30;99.90
4904;DHT22;2467;48.142;11.616;2023-03-14T02:56:48;10.30;99.90
4904;DHT22;2467;48.142;11.616;2023-03-14T02:57:21;10.30;99.90
4904;DHT22;2467;48.142;11.616;2023-03-14T02:57:53;10.30;99.90
4904;DHT22;2467;48.142;11.616;2023-03-14T02:58:27;10.20;99.90
4904;DHT22;2467;48.142;11.616;2023-03-14T02:59:02;10.30;99.90
4904;DHT22;2467;48.142;11.616;2023-03-14T02:59:34;10.30;99.90
4904;DHT22;2467;48.142;11.616;2023-03-14T03:00:07;10.30;99.90
4904;DHT22;2467;48.142;11.616;2023-03-14T03:00:39;10.30;99.90
4904;DHT22;2467;48.142;11.616;2023-03-14T03:01:12;10.30;99.90
4904;DHT22;2467;48.142;11.616;2023-03-14T03:01:44;10.30;99.90
4904;DHT22;2467;48.142;11.616;2023-03-14T03:02:16;10.30;99.90
4904;DHT22;2467;48.142;11.616;2023-03-14T03:02:49;10.30;99.90
4904;DHT22;2467;48.142;11.616;2023-03-14T03:03:21;10.20;99.90
4904;DHT22;2467;48.142;11.616;2023-03-14T03:03:53;10.20;99.90
4904;DHT22;2467;48.142;11.616;2023-03-14T03:04:25;10.20;99.90
4904;DHT22;2467;48.142;11.616;2023-03-14T03:04:58;10.20;99.90
4904;DHT22;2467;48.142;11.616;2023-03-14T03:05:29;10.20;99.90
4904;DHT22;2467;48.142;11.616;2023-03-14T03:06:01;10.20;99.90
4904;DHT22;2467;48.142;11.616;2023-03-14T03:06:34;10.20;99.90
4904;DHT22;2467;48.142;11.616;2023-03-14T03:07:07;10.20;99.90
4904;DHT22;2467;48.142;11.616;2023-03-14T03:07:39;10.30;99.90
4904;DHT22;2467;48.142;11.616;2023-03-14T03:08:12;10.30;99.90
4904;DHT22;2467;48.142;11.616;2023-03-14T03:08:44;10.20;99.90
4904;DHT22;2467;48.142;11.616;2023-03-14T03:09:15;10.30;99.90
4904;DHT22;2467;48.142;11.616;2023-03-14T03:09:48;10.30;99.90
4904;DHT22;2467;48.142;11.616;2023-03-14T03:10:20;10.30;99.90
4904;DHT22;2467;48.142;11.616;2023-03-14T03:10:53;10.20;99.90
4904;DHT22;2467;48.142;11.616;2023-03-14T03:11:25;10.20;99.90
4904;DHT22;2467;48.142;11.616;2023-03-14T03:11:57;10.20;99.90
4904;DHT22;2467;48.142;11.616;2023-03-14T03:12:29;10.20;99.90
4904;DHT22;2467;48.142;11.616;2023-03-14T03:13:02;10.20;99.90
4904;DHT22;2467;48.142;11.616;2023-03-14T03:13:35;10.20;99.90
4904;DHT22;2467;48.142;11.616;2023-03-14T03:14:07;10.20;99.90
4904;DHT22;2467;48.142;11.616;2023-03-14T03:14:40;10.20;99.90
4904;DHT22;2467;48.142;11.616;2023-03-14T03:15:12;10.20;99.90
4904;DHT22;2467;48.142;11.616;2023-03-14T03:15:44;10.20;99.90
4904;DHT22;2467;48.142;11.616;2023-03-14T03:16:17;10.20;99.90
4904;DHT22;2467;48.142;11.616;2023-03-14T03:16:49;10.20;99.90
4904;DHT22;2467;48.142;11.616;2023-03-14T03:17:21;10.20;99.90
4904;DHT22;2467;48.142;11.616;2023-03-14T03:17:53;10.10;99.90
4904;DHT22;2467;48.142;11.616;2023-03-14T03:18:25;10.20;99.90
4904;DHT22;2467;48.142;11.616;2023-03-14T03:18:57;10.20;99.90
4904;DHT22;2467;48.142;11.616;2023-03-14T03:19:30;10.20;99.90
4904;DHT22;2467;48.142;11.616;2023-03-14T03:20:03;10.20;99.90
4904;DHT22;2467;48.142;11.616;2023-03-14T03:20:36;10.20;99.90
4904;DHT22;2467;48.142;11.616;2023-03-14T03:21:09;10.10;99.90
4904;DHT22;2467;48.142;11.616;2023-03-14T03:21:41;10.20;99.90
4904;DHT22;2467;48.142;11.616;2023-03-14T03:22:13;10.20;99.90
4904;DHT22;2467;48.142;11.616;2023-03-14T03:22:45;10.20;99.90
4904;DHT22;2467;48.142;11.616;2023-03-14T03:23:17;10.20;99.90
4904;DHT22;2467;48.142;11.616;2023-03-14T03:23:50;10.10;99.90
4904;DHT22;2467;48.142;11.616;2023-03-14T03:24:22;10.10;99.90
4904;DHT22;2467;48.142;11.616;2023-03-14T03:24:54;10.10;99.90
4904;DHT22;2467;48.142;11.616;2023-03-14T03:25:27;10.10;99.90
4904;DHT22;2467;48.142;11.616;2023-03-14T03:25:59;10.10;99.90
4904;DHT22;2467;48.142;11.616;2023-03-14T03:26:32;10.10;99.90
4904;DHT22;2467;48.142;11.616;2023-03-14T03:27:04;10.00;99.90
4904;DHT22;2467;48.142;11.616;2023-03-14T03:27:37;10.00;99.90
4904;DHT22;2467;48.142;11.616;2023-03-14T03:28:09;10.00;99.90
4904;DHT22;2467;48.142;11.616;2023-03-14T03:28:43;10.00;99.90
4904;DHT22;2467;48.142;11.616;2023-03-14T03:29:15;10.00;99.90
4904;DHT22;2467;48.142;11.616;2023-03-14T03:29:47;10.00;99.90
4904;DHT22;2467;48.142;11.616;2023-03-14T03:30:20;10.00;99.90
4904;DHT22;2467;48.142;11.616;2023-03-14T03:30:52;10.00;99.90
4904;DHT22;2467;48.142;11.616;2023-03-14T03:31:24;10.00;99.90
4904;DHT22;2467;48.142;11.616;2023-03-14T03:31:56;10.00;99.90
4904;DHT22;2467;48.142;11.616;2023-03-14T03:32:28;10.00;99.90
4904;DHT22;2467;48.142;11.616;2023-03-14T03:33:01;10.00;99.90
4904;DHT22;2467;48.142;11.616;2023-03-14T03:33:33;10.00;99.90
4904;DHT22;2467;48.142;11.616;2023-03-14T03:34:05;10.00;99.90
4904;DHT22;2467;48.142;11.616;2023-03-14T03:34:38;10.00;99.90
4904;DHT22;2467;48.142;11.616;2023-03-14T03:35:09;10.00;99.90
4904;DHT22;2467;48.142;11.616;2023-03-14T03:35:43;10.00;99.90
4904;DHT22;2467;48.142;11.616;2023-03-14T03:36:20;10.00;99.90